Virginiborg — PBDL — position and weather

sailwx.info

Track history (hours):
 
Tides and Currents Weather Stations Pressure Air Temp Water Temp Dewpoint Dewpoint Depression Visibility Wind Speed Wind Dir Waves Ship Positions

Virginiborg

Last reported at 2016-Aug-29 06:33 UTC. Time now 2016-Aug-30 05:02 UTC.
Position N 55°40' E 015°32'.

Length 132 m; draft 4.5 m.

Type: Cargo ship. MMSI: 244632000.

Date/timePositionNaut miles runAvg speedWind from/ knotsBaromVisibWave heightAir tempDewpointWater temp
2016-Aug-29 06:33N 55°40' E 015°32'1312.8
2016-Aug-29 05:33N 55°34' E 015°12'1312.9
2016-Aug-29 04:33N 55°28' E 014°52'1212.3
2016-Aug-29 03:33N 55°21' E 014°34'1212.4
2016-Aug-29 02:33N 55°11' E 014°21'1212.5
2016-Aug-29 01:33N 55°10' E 013°59'1212.3
2016-Aug-29 00:33N 55°11' E 013°37'1512.4
2016-Aug-28 23:21N 55°12' E 013°11'911.9
2016-Aug-28 22:33N 55°14' E 012°55'1111.2
2016-Aug-28 21:33N 55°19' E 012°37'1212.0
2016-Aug-28 20:33N 55°31' E 012°41'1111.3
2016-Aug-28 19:33N 55°42' E 012°41'1111.1
2016-Aug-28 18:33N 55°53' E 012°39'1110.7
2016-Aug-28 17:33N 56°04' E 012°38'1010.2
2016-Aug-28 16:33N 56°10' E 012°23'3210.5
2016-Aug-28 13:33N 56°37' E 011°55'1111.2
2016-Aug-28 12:33N 56°48' E 011°50'1210.8
2016-Aug-28 11:26N 56°60' E 011°42'1010.9
2016-Aug-28 10:31N 57°09' E 011°36'1010.6
2016-Aug-28 09:33N 57°19' E 011°30'1010.3
2016-Aug-28 08:33N 57°28' E 011°22'10 9.8
2016-Aug-28 07:33N 57°35' E 011°09'1110.7
2016-Aug-28 06:33N 57°42' E 010°54'1211.6
2016-Aug-28 05:34N 57°48' E 010°35'1312.3
2016-Aug-28 04:31N 57°47' E 010°11'1212.4
2016-Aug-28 03:33N 57°45' E 009°49'1212.2
2016-Aug-28 02:33N 57°44' E 009°26'1412.7
2016-Aug-28 01:27N 57°43' E 008°60'2512.6
2016-Aug-27 23:27N 57°40' E 008°13'1611.9
2016-Aug-27 22:06N 57°40' E 007°43'3212.0
2016-Aug-27 19:24N 57°39' E 006°42'1011.7
2016-Aug-27 18:33N 57°41' E 006°24'1511.6
2016-Aug-27 17:15N 57°45' E 005°56'27712.2
2016-Aug-26 18:28N 58°41' W 002°39'1112.3
2016-Aug-26 17:34N 58°42' W 003°01'1414.3
2016-Aug-26 16:33N 58°43' W 003°28'1313.4
2016-Aug-26 15:33N 58°42' W 003°54'1313.4
2016-Aug-26 14:33N 58°42' W 004°20'4011.8
2016-Aug-26 11:09N 58°23' W 005°28'2312.5
2016-Aug-26 09:19N 58°03' W 005°50'14110.9
2016-Aug-25 20:25N 55°47' W 006°59'910.8
2016-Aug-25 19:33N 55°41' W 006°46'1211.9
2016-Aug-25 18:33N 55°34' W 006°30'1211.9
2016-Aug-25 17:33N 55°26' W 006°14'1110.8
2016-Aug-25 16:34N 55°20' W 005°58'1110.7
2016-Aug-25 15:33N 55°11' W 005°48'1010.5
2016-Aug-25 14:34N 55°02' W 005°38'1010.4
2016-Aug-25 13:33N 54°53' W 005°29'10 9.9
2016-Aug-25 12:32N 54°45' W 005°20'1010.6
2016-Aug-25 11:34N 54°36' W 005°11'1110.8
2016-Aug-25 10:33N 54°26' W 005°05'1211.8
2016-Aug-25 09:34N 54°14' W 004°59'1312.5
2016-Aug-25 08:33N 54°02' W 004°54'1313.0
2016-Aug-25 07:33N 53°55' W 004°36'1313.1
2016-Aug-25 06:34N 53°48' W 004°17'2612.8
2016-Aug-25 04:30N 53°34' W 003°40'1112.0
2016-Aug-25 03:33N 53°32' W 003°21'1010.5
2016-Aug-25 02:33N 53°29' W 003°04'5 4.8
2016-Aug-25 01:33N 53°24' W 003°01'0 0.0
2016-Aug-25 00:34N 53°24' W 003°01'1 0.7
2016-Aug-24 23:33N 53°24' W 003°03'0 0.0
2016-Aug-24 22:29N 53°24' W 003°03'0 0.0
2016-Aug-24 21:32N 53°24' W 003°03'0 0.0
2016-Aug-24 20:31N 53°24' W 003°03'0 0.0
2016-Aug-24 19:31N 53°24' W 003°03'0 0.0
2016-Aug-24 18:31N 53°24' W 003°03'0 0.0
2016-Aug-24 17:33N 53°24' W 003°03'0 0.0
2016-Aug-24 16:30N 53°24' W 003°03'0 0.0
2016-Aug-24 15:29N 53°24' W 003°03'0 0.0
2016-Aug-24 14:32N 53°24' W 003°03'0 0.0
2016-Aug-24 13:28N 53°24' W 003°03'0 0.0
2016-Aug-24 12:28N 53°24' W 003°03'0 0.0
2016-Aug-24 11:24N 53°24' W 003°03'0 0.0
2016-Aug-24 10:33N 53°24' W 003°03'0 0.0
2016-Aug-24 09:30N 53°24' W 003°03'0 0.0
2016-Aug-24 08:32N 53°24' W 003°03'0 0.0
2016-Aug-24 07:32N 53°24' W 003°03'0 0.0
2016-Aug-24 06:31N 53°24' W 003°03'0 0.0
2016-Aug-24 04:31N 53°24' W 003°03'0 0.0
2016-Aug-24 03:33N 53°24' W 003°03'0 0.0
2016-Aug-24 02:33N 53°24' W 003°03'0 0.0
2016-Aug-24 01:32N 53°24' W 003°03'0 0.0
2016-Aug-24 00:29N 53°24' W 003°03'0 0.0
2016-Aug-23 23:28N 53°24' W 003°03'0 0.0
2016-Aug-23 22:28N 53°24' W 003°03'0 0.0
2016-Aug-23 21:34N 53°24' W 003°03'0 0.0
2016-Aug-23 20:30N 53°24' W 003°03'0 0.0
2016-Aug-23 19:30N 53°24' W 003°03'0 0.0
2016-Aug-23 18:32N 53°24' W 003°03'0 0.0
2016-Aug-23 17:32N 53°24' W 003°03'0 0.0
2016-Aug-23 16:31N 53°24' W 003°03'0 0.0
2016-Aug-23 15:28N 53°24' W 003°03'0 0.0
2016-Aug-23 14:27N 53°24' W 003°03'0 0.0
2016-Aug-23 13:33N 53°24' W 003°03'0 0.0
2016-Aug-23 12:33N 53°24' W 003°03'0 0.0
2016-Aug-23 11:32N 53°24' W 003°03'0 0.0
2016-Aug-23 10:32N 53°24' W 003°03'0 0.0
2016-Aug-23 09:30N 53°24' W 003°03'0 0.0
2016-Aug-23 08:31N 53°24' W 003°03'0 0.0
2016-Aug-23 07:33N 53°24' W 003°03'0 0.0
2016-Aug-23 06:33N 53°24' W 003°03'0 0.0
2016-Aug-23 05:30N 53°24' W 003°03'0 0.0
2016-Aug-23 04:32N 53°24' W 003°03'0 0.0
2016-Aug-23 03:33N 53°24' W 003°03'1 0.8
2016-Aug-23 02:33N 53°24' W 003°01'0 0.1
2016-Aug-23 01:33N 53°24' W 003°01'3 3.1
2016-Aug-23 00:33N 53°27' W 003°02'8 8.0
2016-Aug-22 23:33N 53°31' W 003°14'6 6.1
2016-Aug-22 22:33N 53°31' W 003°25'8 8.2
2016-Aug-22 21:33N 53°31' W 003°39'8 8.3
2016-Aug-22 20:33N 53°35' W 003°51'9 9.1
2016-Aug-22 19:33N 53°40' W 004°04'10 9.8
2016-Aug-22 18:33N 53°46' W 004°17'11 9.7
2016-Aug-22 17:28N 53°52' W 004°32'20 9.5
2016-Aug-22 15:23N 54°06' W 004°56'911.1
2016-Aug-22 14:34N 54°15' W 005°01'9 9.0
2016-Aug-22 13:34N 54°23' W 005°05'8 8.1
2016-Aug-22 12:33N 54°31' W 005°11'9 8.9
2016-Aug-22 11:34N 54°39' W 005°18'1110.4
2016-Aug-22 10:32N 54°48' W 005°27'1110.3
2016-Aug-22 09:30N 54°57' W 005°37'2311.7
2016-Aug-22 07:33N 55°16' W 005°60'9 9.3
2016-Aug-22 06:34N 55°22' W 006°12'10 9.7
2016-Aug-22 05:33N 55°24' W 006°29'9 9.4
2016-Aug-22 04:34N 55°25' W 006°45'  
Track history (hours):
 
Tides and Currents Weather Stations Pressure Air Temp Water Temp Dewpoint Dewpoint Depression Visibility Wind Speed Wind Dir Waves Ship Positions

Virginiborg

Last reported at 2016-Aug-29 06:33 UTC. Time now 2016-Aug-30 05:02 UTC.
Position N 55°40' E 015°32'.

Length 132 m; draft 4.5 m.

Type: Cargo ship. MMSI: 244632000.

Date/timePositionNaut miles runAvg speedWind from/ knotsBaromVisibWave heightAir tempDewpointWater temp
2016-Aug-29 06:33N 55°40' E 015°32'1312.8
2016-Aug-29 05:33N 55°34' E 015°12'1312.9
2016-Aug-29 04:33N 55°28' E 014°52'1212.3
2016-Aug-29 03:33N 55°21' E 014°34'1212.4
2016-Aug-29 02:33N 55°11' E 014°21'1212.5
2016-Aug-29 01:33N 55°10' E 013°59'1212.3
2016-Aug-29 00:33N 55°11' E 013°37'1512.4
2016-Aug-28 23:21N 55°12' E 013°11'911.9
2016-Aug-28 22:33N 55°14' E 012°55'1111.2
2016-Aug-28 21:33N 55°19' E 012°37'1212.0
2016-Aug-28 20:33N 55°31' E 012°41'1111.3
2016-Aug-28 19:33N 55°42' E 012°41'1111.1
2016-Aug-28 18:33N 55°53' E 012°39'1110.7
2016-Aug-28 17:33N 56°04' E 012°38'1010.2
2016-Aug-28 16:33N 56°10' E 012°23'3210.5
2016-Aug-28 13:33N 56°37' E 011°55'1111.2
2016-Aug-28 12:33N 56°48' E 011°50'1210.8
2016-Aug-28 11:26N 56°60' E 011°42'1010.9
2016-Aug-28 10:31N 57°09' E 011°36'1010.6
2016-Aug-28 09:33N 57°19' E 011°30'1010.3
2016-Aug-28 08:33N 57°28' E 011°22'10 9.8
2016-Aug-28 07:33N 57°35' E 011°09'1110.7
2016-Aug-28 06:33N 57°42' E 010°54'1211.6
2016-Aug-28 05:34N 57°48' E 010°35'1312.3
2016-Aug-28 04:31N 57°47' E 010°11'1212.4
2016-Aug-28 03:33N 57°45' E 009°49'1212.2
2016-Aug-28 02:33N 57°44' E 009°26'1412.7
2016-Aug-28 01:27N 57°43' E 008°60'2512.6
2016-Aug-27 23:27N 57°40' E 008°13'1611.9
2016-Aug-27 22:06N 57°40' E 007°43'3212.0
2016-Aug-27 19:24N 57°39' E 006°42'1011.7
2016-Aug-27 18:33N 57°41' E 006°24'1511.6
2016-Aug-27 17:15N 57°45' E 005°56'27712.2
2016-Aug-26 18:28N 58°41' W 002°39'1112.3
2016-Aug-26 17:34N 58°42' W 003°01'1414.3
2016-Aug-26 16:33N 58°43' W 003°28'1313.4
2016-Aug-26 15:33N 58°42' W 003°54'1313.4
2016-Aug-26 14:33N 58°42' W 004°20'4011.8
2016-Aug-26 11:09N 58°23' W 005°28'2312.5
2016-Aug-26 09:19N 58°03' W 005°50'14110.9
2016-Aug-25 20:25N 55°47' W 006°59'910.8
2016-Aug-25 19:33N 55°41' W 006°46'1211.9
2016-Aug-25 18:33N 55°34' W 006°30'1211.9
2016-Aug-25 17:33N 55°26' W 006°14'1110.8
2016-Aug-25 16:34N 55°20' W 005°58'1110.7
2016-Aug-25 15:33N 55°11' W 005°48'1010.5
2016-Aug-25 14:34N 55°02' W 005°38'1010.4
2016-Aug-25 13:33N 54°53' W 005°29'10 9.9
2016-Aug-25 12:32N 54°45' W 005°20'1010.6
2016-Aug-25 11:34N 54°36' W 005°11'1110.8
2016-Aug-25 10:33N 54°26' W 005°05'1211.8
2016-Aug-25 09:34N 54°14' W 004°59'1312.5
2016-Aug-25 08:33N 54°02' W 004°54'1313.0
2016-Aug-25 07:33N 53°55' W 004°36'1313.1
2016-Aug-25 06:34N 53°48' W 004°17'2612.8
2016-Aug-25 04:30N 53°34' W 003°40'1112.0
2016-Aug-25 03:33N 53°32' W 003°21'1010.5
2016-Aug-25 02:33N 53°29' W 003°04'5 4.8
2016-Aug-25 01:33N 53°24' W 003°01'0 0.0
2016-Aug-25 00:34N 53°24' W 003°01'1 0.7
2016-Aug-24 23:33N 53°24' W 003°03'0 0.0
2016-Aug-24 22:29N 53°24' W 003°03'0 0.0
2016-Aug-24 21:32N 53°24' W 003°03'0 0.0
2016-Aug-24 20:31N 53°24' W 003°03'0 0.0
2016-Aug-24 19:31N 53°24' W 003°03'0 0.0
2016-Aug-24 18:31N 53°24' W 003°03'0 0.0
2016-Aug-24 17:33N 53°24' W 003°03'0 0.0
2016-Aug-24 16:30N 53°24' W 003°03'0 0.0
2016-Aug-24 15:29N 53°24' W 003°03'0 0.0
2016-Aug-24 14:32N 53°24' W 003°03'0 0.0
2016-Aug-24 13:28N 53°24' W 003°03'0 0.0
2016-Aug-24 12:28N 53°24' W 003°03'0 0.0
2016-Aug-24 11:24N 53°24' W 003°03'0 0.0
2016-Aug-24 10:33N 53°24' W 003°03'0 0.0
2016-Aug-24 09:30N 53°24' W 003°03'0 0.0
2016-Aug-24 08:32N 53°24' W 003°03'0 0.0
2016-Aug-24 07:32N 53°24' W 003°03'0 0.0
2016-Aug-24 06:31N 53°24' W 003°03'0 0.0
2016-Aug-24 04:31N 53°24' W 003°03'0 0.0
2016-Aug-24 03:33N 53°24' W 003°03'0 0.0
2016-Aug-24 02:33N 53°24' W 003°03'0 0.0
2016-Aug-24 01:32N 53°24' W 003°03'0 0.0
2016-Aug-24 00:29N 53°24' W 003°03'0 0.0
2016-Aug-23 23:28N 53°24' W 003°03'0 0.0
2016-Aug-23 22:28N 53°24' W 003°03'0 0.0
2016-Aug-23 21:34N 53°24' W 003°03'0 0.0
2016-Aug-23 20:30N 53°24' W 003°03'0 0.0
2016-Aug-23 19:30N 53°24' W 003°03'0 0.0
2016-Aug-23 18:32N 53°24' W 003°03'0 0.0
2016-Aug-23 17:32N 53°24' W 003°03'0 0.0
2016-Aug-23 16:31N 53°24' W 003°03'0 0.0
2016-Aug-23 15:28N 53°24' W 003°03'0 0.0
2016-Aug-23 14:27N 53°24' W 003°03'0 0.0
2016-Aug-23 13:33N 53°24' W 003°03'0 0.0
2016-Aug-23 12:33N 53°24' W 003°03'0 0.0
2016-Aug-23 11:32N 53°24' W 003°03'0 0.0
2016-Aug-23 10:32N 53°24' W 003°03'0 0.0
2016-Aug-23 09:30N 53°24' W 003°03'0 0.0
2016-Aug-23 08:31N 53°24' W 003°03'0 0.0
2016-Aug-23 07:33N 53°24' W 003°03'0 0.0
2016-Aug-23 06:33N 53°24' W 003°03'0 0.0
2016-Aug-23 05:30N 53°24' W 003°03'0 0.0
2016-Aug-23 04:32N 53°24' W 003°03'0 0.0
2016-Aug-23 03:33N 53°24' W 003°03'1 0.8
2016-Aug-23 02:33N 53°24' W 003°01'0 0.1
2016-Aug-23 01:33N 53°24' W 003°01'3 3.1
2016-Aug-23 00:33N 53°27' W 003°02'8 8.0
2016-Aug-22 23:33N 53°31' W 003°14'6 6.1
2016-Aug-22 22:33N 53°31' W 003°25'8 8.2
2016-Aug-22 21:33N 53°31' W 003°39'8 8.3
2016-Aug-22 20:33N 53°35' W 003°51'9 9.1
2016-Aug-22 19:33N 53°40' W 004°04'10 9.8
2016-Aug-22 18:33N 53°46' W 004°17'11 9.7
2016-Aug-22 17:28N 53°52' W 004°32'20 9.5
2016-Aug-22 15:23N 54°06' W 004°56'911.1
2016-Aug-22 14:34N 54°15' W 005°01'9 9.0
2016-Aug-22 13:34N 54°23' W 005°05'8 8.1
2016-Aug-22 12:33N 54°31' W 005°11'9 8.9
2016-Aug-22 11:34N 54°39' W 005°18'1110.4
2016-Aug-22 10:32N 54°48' W 005°27'1110.3
2016-Aug-22 09:30N 54°57' W 005°37'2311.7
2016-Aug-22 07:33N 55°16' W 005°60'9 9.3
2016-Aug-22 06:34N 55°22' W 006°12'10 9.7
2016-Aug-22 05:33N 55°24' W 006°29'9 9.4
2016-Aug-22 04:34N 55°25' W 006°45'  

Dump ship's entire track history